createdAt,value
2023-01-29T00:00:15.457Z,101187.19
2023-01-29T00:03:18.146Z,101202.69
2023-01-29T00:06:20.725Z,101197.63
2023-01-29T00:09:23.147Z,101206.69
2023-01-29T00:12:25.773Z,101209.78
2023-01-29T00:15:28.220Z,101205.91
2023-01-29T00:18:31.375Z,101206.16
2023-01-29T00:21:33.818Z,101216.31
2023-01-29T00:24:36.237Z,101192.31
2023-01-29T00:27:38.754Z,101208.00
2023-01-29T00:30:41.808Z,101191.72
2023-01-29T00:33:44.376Z,101203.56
2023-01-29T00:36:47.423Z,101223.03
2023-01-29T00:39:49.892Z,101217.41
2023-01-29T00:43:11.604Z,101191.75
2023-01-29T00:46:14.387Z,101221.94
2023-01-29T00:49:17.203Z,101223.63
2023-01-29T00:52:25.618Z,101205.72
2023-01-29T00:55:28.118Z,101224.53
2023-01-29T00:58:34.344Z,101226.19
2023-01-29T01:01:56.007Z,101208.72
2023-01-29T01:04:58.600Z,101222.81
2023-01-29T01:08:00.977Z,101226.13
2023-01-29T01:11:05.977Z,101227.25
2023-01-29T01:14:08.958Z,101228.94
2023-01-29T01:17:11.391Z,101234.16
2023-01-29T01:20:15.011Z,101209.91
2023-01-29T01:23:21.262Z,101240.19
2023-01-29T01:26:23.722Z,101243.09
2023-01-29T01:29:26.160Z,101236.88
2023-01-29T01:32:28.784Z,101228.88
2023-01-29T01:35:31.195Z,101235.75
2023-01-29T01:38:33.617Z,101211.31
2023-01-29T01:41:36.037Z,101237.25
2023-01-29T01:45:01.283Z,101255.44
2023-01-29T01:48:17.265Z,101255.50
2023-01-29T01:51:20.751Z,101254.50
2023-01-29T01:54:28.637Z,101248.78
2023-01-29T01:57:31.471Z,101246.94
2023-01-29T02:00:34.327Z,101251.47
2023-01-29T02:04:03.313Z,101235.34
2023-01-29T02:07:26.315Z,101257.00
2023-01-29T02:10:30.163Z,101218.03
2023-01-29T02:13:32.569Z,101262.69
2023-01-29T02:16:36.842Z,101246.66
2023-01-29T02:19:45.558Z,101266.09
2023-01-29T02:22:55.403Z,101265.22
2023-01-29T02:26:20.941Z,101266.28
2023-01-29T02:29:30.567Z,101270.38
2023-01-29T02:32:42.093Z,101257.97
2023-01-29T02:35:56.764Z,101244.78
2023-01-29T02:39:11.451Z,101276.41
2023-01-29T02:42:28.684Z,101283.53
2023-01-29T02:45:43.675Z,101256.97
2023-01-29T02:48:55.686Z,101280.59
2023-01-29T02:52:11.967Z,101283.97
2023-01-29T02:55:18.689Z,101259.16
2023-01-29T02:58:35.807Z,101296.97
2023-01-29T03:01:48.794Z,101296.19
2023-01-29T03:04:55.746Z,101284.56
2023-01-29T03:08:10.217Z,101295.53
2023-01-29T03:11:14.507Z,101287.16
2023-01-29T03:14:57.031Z,101287.97
2023-01-29T03:18:09.263Z,101299.22
2023-01-29T03:21:36.097Z,101303.22
2023-01-29T03:25:03.979Z,101305.03
2023-01-29T03:28:28.634Z,101289.47
2023-01-29T03:31:51.109Z,101310.25
2023-01-29T03:34:58.771Z,101310.72
2023-01-29T03:38:04.642Z,101312.31
2023-01-29T03:41:20.728Z,101282.28
2023-01-29T03:44:41.484Z,101310.19
2023-01-29T03:48:00.246Z,101311.06
2023-01-29T03:51:17.835Z,101310.81
2023-01-29T03:54:28.300Z,101290.81
2023-01-29T03:57:47.593Z,101285.34
2023-01-29T04:01:05.013Z,101296.28
2023-01-29T04:04:25.247Z,101299.97
2023-01-29T04:07:33.307Z,101306.63
2023-01-29T04:10:39.572Z,101315.25
2023-01-29T04:13:43.294Z,101317.59
2023-01-29T04:16:50.323Z,101317.22
2023-01-29T04:20:16.748Z,101309.66
2023-01-29T04:23:25.236Z,101298.25
2023-01-29T04:26:28.142Z,101306.47
2023-01-29T04:29:48.695Z,101295.47
2023-01-29T04:33:02.652Z,101300.22
2023-01-29T04:36:27.572Z,101281.94
2023-01-29T04:39:55.355Z,101303.53
2023-01-29T04:43:10.121Z,101296.75
2023-01-29T04:46:15.379Z,101293.66
2023-01-29T04:50:13.719Z,101300.69
2023-01-29T04:53:37.737Z,101297.28
2023-01-29T04:56:51.559Z,101299.38
2023-01-29T05:00:18.091Z,101285.53
2023-01-29T05:03:23.758Z,101278.97
2023-01-29T05:06:26.689Z,101276.41
2023-01-29T05:09:29.616Z,101265.81
2023-01-29T05:12:33.314Z,101275.88
2023-01-29T05:15:39.479Z,101297.94
2023-01-29T05:18:42.541Z,101275.94
2023-01-29T05:21:47.693Z,101276.97
2023-01-29T05:24:50.959Z,101285.50
2023-01-29T05:28:11.973Z,101288.59
2023-01-29T05:31:15.334Z,101294.03
2023-01-29T05:34:18.214Z,101278.97
2023-01-29T05:37:20.680Z,101274.34
2023-01-29T05:40:25.122Z,101296.97
2023-01-29T05:43:27.780Z,101299.81
2023-01-29T05:46:30.261Z,101294.47
2023-01-29T05:49:32.670Z,101303.47
2023-01-29T05:52:35.283Z,101302.03
2023-01-29T05:55:37.757Z,101300.59
2023-01-29T05:58:40.332Z,101326.88
2023-01-29T06:01:42.852Z,101331.88
2023-01-29T06:04:45.301Z,101335.03
2023-01-29T06:07:47.791Z,101329.09
2023-01-29T06:10:50.530Z,101331.22
2023-01-29T06:13:52.983Z,101328.06
2023-01-29T06:16:55.412Z,101332.19
2023-01-29T06:19:57.873Z,101336.38
2023-01-29T06:23:00.544Z,101336.13
2023-01-29T06:26:05.966Z,101350.63
2023-01-29T06:29:08.499Z,101353.63
2023-01-29T06:32:11.007Z,101337.56
2023-01-29T06:35:13.837Z,101334.53
2023-01-29T06:38:16.262Z,101357.19
2023-01-29T06:41:19.690Z,101362.31
2023-01-29T06:44:22.151Z,101366.44
2023-01-29T06:47:25.124Z,101363.38
2023-01-29T06:50:27.537Z,101362.00
2023-01-29T06:53:30.564Z,101333.78
2023-01-29T06:56:33.025Z,101342.22
2023-01-29T06:59:35.396Z,101352.34
2023-01-29T07:02:37.868Z,101328.63
2023-01-29T07:05:40.369Z,101354.41
2023-01-29T07:08:42.821Z,101341.84
2023-01-29T07:11:45.248Z,101352.19
2023-01-29T07:14:47.803Z,101328.94
2023-01-29T07:18:00.701Z,101357.09
2023-01-29T07:21:07.243Z,101326.22
2023-01-29T07:24:10.061Z,101354.47
2023-01-29T07:27:12.464Z,101354.72
2023-01-29T07:30:16.180Z,101357.66
2023-01-29T07:33:18.956Z,101338.28
2023-01-29T07:36:21.528Z,101339.06
2023-01-29T07:39:23.988Z,101334.47
2023-01-29T07:42:26.453Z,101358.47
2023-01-29T07:45:29.713Z,101358.75
2023-01-29T07:48:32.140Z,101350.63
2023-01-29T07:51:34.700Z,101360.28
2023-01-29T07:54:37.208Z,101341.84
2023-01-29T07:57:39.658Z,101356.94
2023-01-29T08:00:42.584Z,101338.81
2023-01-29T08:03:45.089Z,101328.78
2023-01-29T08:06:47.466Z,101358.84
2023-01-29T08:09:50.690Z,101340.47
2023-01-29T08:12:57.595Z,101344.28
2023-01-29T08:16:04.392Z,101342.69
2023-01-29T08:19:06.825Z,101359.97
2023-01-29T08:22:09.589Z,101371.81
2023-01-29T08:25:12.407Z,101368.56
2023-01-29T08:28:14.879Z,101375.69
2023-01-29T08:31:18.255Z,101377.50
2023-01-29T08:34:20.795Z,101376.50
2023-01-29T08:37:23.240Z,101384.66
2023-01-29T08:40:26.590Z,101399.53
2023-01-29T08:43:29.098Z,101402.69
2023-01-29T08:46:32.298Z,101397.13
2023-01-29T08:49:34.728Z,101396.38
2023-01-29T08:52:37.256Z,101402.34
2023-01-29T08:55:40.788Z,101395.09
2023-01-29T08:58:43.566Z,101381.47
2023-01-29T09:01:45.990Z,101397.06
2023-01-29T09:04:48.688Z,101389.63
2023-01-29T09:07:53.370Z,101404.09
2023-01-29T09:10:59.727Z,101404.50
2023-01-29T09:14:02.177Z,101389.13
2023-01-29T09:17:04.669Z,101394.94
2023-01-29T09:20:08.242Z,101404.91
2023-01-29T09:23:11.552Z,101405.28
2023-01-29T09:26:14.038Z,101404.44
2023-01-29T09:29:18.191Z,101418.72
2023-01-29T09:32:49.739Z,101387.16
2023-01-29T09:35:43.909Z,101406.94
2023-01-29T09:38:46.343Z,101391.81
2023-01-29T09:42:13.568Z,101419.44
2023-01-29T09:45:21.821Z,101427.34
2023-01-29T09:48:26.880Z,101389.97
2023-01-29T09:51:43.737Z,101407.72
2023-01-29T09:54:57.813Z,101403.28
2023-01-29T09:58:06.346Z,101406.44
2023-01-29T10:01:32.139Z,101409.38
2023-01-29T10:05:03.804Z,101403.13
2023-01-29T10:08:40.345Z,101411.97
2023-01-29T10:11:45.768Z,101414.28
2023-01-29T10:14:57.908Z,101413.78
2023-01-29T10:18:21.604Z,101419.75
2023-01-29T10:21:49.830Z,101417.63
2023-01-29T10:25:03.534Z,101402.47
2023-01-29T10:28:15.832Z,101409.13
2023-01-29T10:31:28.069Z,101404.28
2023-01-29T10:34:39.272Z,101393.72
2023-01-29T10:37:42.583Z,101376.19
2023-01-29T10:41:11.457Z,101385.97
2023-01-29T10:44:36.491Z,101384.47
2023-01-29T10:47:52.701Z,101384.19
2023-01-29T10:51:01.118Z,101376.78
2023-01-29T10:54:13.715Z,101383.75
2023-01-29T10:57:27.875Z,101389.00
2023-01-29T11:00:39.571Z,101373.31
2023-01-29T11:03:42.222Z,101354.94
2023-01-29T11:06:44.826Z,101353.94
2023-01-29T11:09:57.998Z,101370.28
2023-01-29T11:13:00.564Z,101359.03
2023-01-29T11:16:05.301Z,101358.72
2023-01-29T11:19:07.881Z,101331.97
2023-01-29T11:22:20.105Z,101341.75
2023-01-29T11:25:22.707Z,101330.94
2023-01-29T11:28:57.229Z,101343.59
2023-01-29T11:32:01.012Z,101334.16
2023-01-29T11:35:17.988Z,101322.44
2023-01-29T11:38:28.705Z,101318.22
2023-01-29T11:41:43.397Z,101324.72
2023-01-29T11:44:45.794Z,101327.44
2023-01-29T11:47:49.627Z,101322.72
2023-01-29T11:51:05.539Z,101290.75
2023-01-29T11:54:16.079Z,101307.28
2023-01-29T11:57:34.699Z,101293.53
2023-01-29T12:00:39.374Z,101301.44
2023-01-29T12:03:44.897Z,101293.25
2023-01-29T12:06:50.518Z,101278.25
2023-01-29T12:09:56.117Z,101298.66
2023-01-29T12:13:10.986Z,101294.31
2023-01-29T12:16:18.921Z,101291.69
2023-01-29T12:19:21.387Z,101298.47
2023-01-29T12:22:34.754Z,101294.00
2023-01-29T12:25:46.632Z,101291.59
2023-01-29T12:29:14.710Z,101289.47
2023-01-29T12:32:36.974Z,101283.03
2023-01-29T12:35:44.792Z,101277.75
2023-01-29T12:38:47.378Z,101268.84
2023-01-29T12:42:25.496Z,101273.69
2023-01-29T12:45:28.486Z,101253.28
2023-01-29T12:48:34.314Z,101271.56
2023-01-29T12:51:40.912Z,101270.47
2023-01-29T12:54:49.968Z,101256.03
2023-01-29T12:58:09.417Z,101273.97
2023-01-29T13:01:17.680Z,101257.91
2023-01-29T13:04:41.613Z,101271.28
2023-01-29T13:07:50.072Z,101251.84
2023-01-29T13:10:54.657Z,101253.34
2023-01-29T13:14:01.699Z,101247.00
2023-01-29T13:17:35.920Z,101255.75
2023-01-29T13:20:39.498Z,101257.41
2023-01-29T13:24:05.459Z,101212.34
2023-01-29T13:27:27.015Z,101240.09
2023-01-29T13:30:33.185Z,101241.69
2023-01-29T13:33:35.817Z,101234.50
2023-01-29T13:36:43.353Z,101234.66
2023-01-29T13:39:53.315Z,101217.34
2023-01-29T13:42:58.946Z,101236.19
2023-01-29T13:46:11.564Z,101239.47
2023-01-29T13:49:40.879Z,101237.13
2023-01-29T13:52:45.715Z,101201.00
2023-01-29T13:55:48.885Z,101226.25
2023-01-29T13:58:55.296Z,101225.41
2023-01-29T14:02:03.887Z,101216.97
2023-01-29T14:05:31.396Z,101227.25
2023-01-29T14:08:43.518Z,101214.66
2023-01-29T14:11:50.056Z,101209.31
2023-01-29T14:14:56.701Z,101217.03
2023-01-29T14:18:19.974Z,101214.78
2023-01-29T14:21:27.672Z,101222.06
2023-01-29T14:24:31.057Z,101213.50
2023-01-29T14:27:35.185Z,101218.56
2023-01-29T14:30:38.364Z,101209.09
2023-01-29T14:33:43.409Z,101220.13
2023-01-29T14:36:47.906Z,101219.06
2023-01-29T14:39:57.825Z,101208.06
2023-01-29T14:43:06.323Z,101208.03
2023-01-29T14:46:44.693Z,101215.38
2023-01-29T14:49:50.303Z,101226.34
2023-01-29T14:52:54.100Z,101215.75
2023-01-29T14:56:00.905Z,101189.34
2023-01-29T14:59:22.234Z,101216.66
2023-01-29T15:02:33.766Z,101194.56
2023-01-29T15:05:37.437Z,101212.06
2023-01-29T15:08:44.006Z,101226.00
2023-01-29T15:11:54.868Z,101217.22
2023-01-29T15:15:05.724Z,101229.38
2023-01-29T15:18:09.630Z,101227.47
2023-01-29T15:21:17.184Z,101237.94
2023-01-29T15:24:19.602Z,101242.84
2023-01-29T15:27:22.158Z,101220.66
2023-01-29T15:30:32.674Z,101249.22
2023-01-29T15:33:38.616Z,101257.63
2023-01-29T15:36:41.152Z,101242.97
2023-01-29T15:39:44.124Z,101261.38
2023-01-29T15:42:48.640Z,101239.28
2023-01-29T15:45:52.173Z,101232.03
2023-01-29T15:48:57.614Z,101245.72
2023-01-29T15:52:04.881Z,101262.53
2023-01-29T15:55:08.609Z,101259.44
2023-01-29T15:58:19.427Z,101262.53
2023-01-29T16:01:22.530Z,101256.47
2023-01-29T16:04:28.928Z,101250.09
2023-01-29T16:07:31.862Z,101258.31
2023-01-29T16:10:34.995Z,101256.63
2023-01-29T16:13:41.095Z,101236.13
2023-01-29T16:16:49.082Z,101241.44
2023-01-29T16:19:59.606Z,101256.38
2023-01-29T16:23:02.712Z,101261.19
2023-01-29T16:26:07.471Z,101255.66
2023-01-29T16:29:13.185Z,101278.50
2023-01-29T16:32:16.428Z,101282.78
2023-01-29T16:35:19.494Z,101282.16
2023-01-29T16:38:31.242Z,101280.59
2023-01-29T16:41:38.267Z,101263.09
2023-01-29T16:45:20.116Z,101282.63
2023-01-29T16:48:27.798Z,101282.16
2023-01-29T16:51:38.540Z,101285.19
2023-01-29T16:54:44.273Z,101262.56
2023-01-29T16:57:51.522Z,101279.09
2023-01-29T17:00:56.294Z,101259.91
2023-01-29T17:04:03.140Z,101265.34
2023-01-29T17:07:05.884Z,101254.81
2023-01-29T17:10:15.394Z,101258.59
2023-01-29T17:13:30.328Z,101252.97
2023-01-29T17:16:35.618Z,101243.16
2023-01-29T17:19:39.254Z,101231.38
2023-01-29T17:22:42.993Z,101222.66
2023-01-29T17:25:46.730Z,101211.16
2023-01-29T17:28:50.304Z,101216.53
2023-01-29T17:31:53.292Z,101213.00
2023-01-29T17:34:56.064Z,101216.22
2023-01-29T17:37:59.295Z,101214.72
2023-01-29T17:41:27.163Z,101206.75
2023-01-29T17:44:29.794Z,101203.28
2023-01-29T17:47:32.967Z,101191.78
2023-01-29T17:50:36.452Z,101189.13
2023-01-29T17:53:47.343Z,101205.47
2023-01-29T17:56:50.867Z,101202.31
2023-01-29T17:59:53.810Z,101211.59
2023-01-29T18:02:58.029Z,101211.09
2023-01-29T18:06:00.765Z,101190.94
2023-01-29T18:09:03.955Z,101210.47
2023-01-29T18:12:10.106Z,101204.56
2023-01-29T18:15:14.349Z,101191.84
2023-01-29T18:18:22.193Z,101211.75
2023-01-29T18:21:24.895Z,101214.03
2023-01-29T18:24:28.054Z,101208.25
2023-01-29T18:27:30.424Z,101197.81
2023-01-29T18:30:33.593Z,101208.50
2023-01-29T18:33:36.485Z,101190.47
2023-01-29T18:36:38.929Z,101211.97
2023-01-29T18:39:41.515Z,101195.13
2023-01-29T18:42:45.949Z,101219.72
2023-01-29T18:45:49.519Z,101209.72
2023-01-29T18:48:52.359Z,101194.13
2023-01-29T18:51:55.196Z,101195.44
2023-01-29T18:54:57.839Z,101187.47
2023-01-29T18:58:28.408Z,101210.63
2023-01-29T19:01:23.795Z,101193.53
2023-01-29T19:04:26.867Z,101193.38
2023-01-29T19:07:29.685Z,101203.00
2023-01-29T19:10:32.777Z,101186.28
2023-01-29T19:13:36.252Z,101176.72
2023-01-29T19:16:38.905Z,101185.34
2023-01-29T19:19:41.424Z,101173.88
2023-01-29T19:22:44.455Z,101190.56
2023-01-29T19:25:47.498Z,101185.97
2023-01-29T19:28:51.077Z,101190.63
2023-01-29T19:31:54.102Z,101172.13
2023-01-29T19:34:57.863Z,101165.81
2023-01-29T19:38:01.165Z,101149.94
2023-01-29T19:41:05.365Z,101175.75
2023-01-29T19:44:08.121Z,101168.41
2023-01-29T19:47:10.929Z,101175.75
2023-01-29T19:50:13.695Z,101172.63
2023-01-29T19:53:16.376Z,101168.25
2023-01-29T19:56:19.959Z,101176.66
2023-01-29T19:59:22.882Z,101169.38
2023-01-29T20:02:25.959Z,101173.09
2023-01-29T20:05:28.347Z,101165.28
2023-01-29T20:08:31.576Z,101174.50
2023-01-29T20:11:34.254Z,101148.28
2023-01-29T20:14:36.880Z,101179.22
2023-01-29T20:17:39.643Z,101179.38
2023-01-29T20:20:53.165Z,101170.97
2023-01-29T20:23:56.289Z,101172.69
2023-01-29T20:27:00.015Z,101174.53
2023-01-29T20:30:02.489Z,101141.47
2023-01-29T20:33:06.501Z,101165.31
2023-01-29T20:36:10.937Z,101171.41
2023-01-29T20:39:13.805Z,101162.88
2023-01-29T20:42:16.586Z,101168.25
2023-01-29T20:45:19.842Z,101153.72
2023-01-29T20:48:23.047Z,101152.63
2023-01-29T20:51:26.041Z,101157.03
2023-01-29T20:54:30.124Z,101167.16
2023-01-29T20:57:33.030Z,101158.78
2023-01-29T21:00:35.992Z,101159.31
2023-01-29T21:03:39.768Z,101161.50
2023-01-29T21:06:43.619Z,101159.72
2023-01-29T21:09:46.613Z,101167.53
2023-01-29T21:12:48.985Z,101165.16
2023-01-29T21:15:51.445Z,101173.63
2023-01-29T21:18:57.596Z,101142.59
2023-01-29T21:22:00.084Z,101172.75
2023-01-29T21:25:02.588Z,101176.88
2023-01-29T21:28:06.115Z,101180.66
2023-01-29T21:31:10.344Z,101149.22
2023-01-29T21:34:12.743Z,101159.00
2023-01-29T21:37:15.360Z,101142.00
2023-01-29T21:40:18.296Z,101174.63
2023-01-29T21:43:20.946Z,101164.31
2023-01-29T21:46:23.708Z,101141.63
2023-01-29T21:49:26.654Z,101154.03
2023-01-29T21:52:29.341Z,101137.13
2023-01-29T21:55:32.602Z,101141.16
2023-01-29T21:58:35.361Z,101135.47
2023-01-29T22:01:38.836Z,101133.00
2023-01-29T22:04:42.449Z,101107.63
2023-01-29T22:07:44.911Z,101129.22
2023-01-29T22:10:47.443Z,101126.84
2023-01-29T22:13:50.059Z,101102.31
2023-01-29T22:16:52.591Z,101129.81
2023-01-29T22:19:55.069Z,101119.38
2023-01-29T22:23:00.830Z,101116.31
2023-01-29T22:26:07.360Z,101088.44
2023-01-29T22:29:12.202Z,101093.66
2023-01-29T22:32:15.028Z,101109.84
2023-01-29T22:35:17.762Z,101107.72
2023-01-29T22:38:20.317Z,101085.44
2023-01-29T22:41:22.836Z,101087.81
2023-01-29T22:44:25.406Z,101069.00
2023-01-29T22:47:27.821Z,101094.22
2023-01-29T22:50:30.318Z,101073.97
2023-01-29T22:53:32.836Z,101089.38
2023-01-29T22:56:35.270Z,101094.75
2023-01-29T22:59:37.916Z,101098.16
2023-01-29T23:02:40.479Z,101085.28
2023-01-29T23:05:42.963Z,101101.34
2023-01-29T23:08:45.740Z,101099.53
2023-01-29T23:11:48.281Z,101078.22
2023-01-29T23:14:50.713Z,101089.56
2023-01-29T23:17:53.151Z,101057.75
2023-01-29T23:20:58.521Z,101086.84
2023-01-29T23:24:01.389Z,101066.00
2023-01-29T23:27:16.128Z,101084.59
2023-01-29T23:30:18.999Z,101081.75
2023-01-29T23:33:21.742Z,101070.47
2023-01-29T23:36:24.220Z,101076.13
2023-01-29T23:39:26.669Z,101056.00
2023-01-29T23:42:29.188Z,101074.38
2023-01-29T23:45:31.637Z,101070.06
2023-01-29T23:48:34.089Z,101079.75
2023-01-29T23:51:36.672Z,101063.53
2023-01-29T23:54:39.093Z,101059.44
2023-01-29T23:57:41.543Z,101066.78
